Terminal Aerodrome Forecast
Issued by NWS Springfield, MO

Home | Current Version | Previous Version | Text Only | Print | Product List | Glossary On
Versions: 1 2 3 4 5 6 7 8 9 10 11 12
010
FTUS43 KSGF 230520
TAFSGF
TAF
KSGF 230520Z 2306/2406 32006KT P6SM OVC090
     FM231300 01006KT P6SM FEW200
     FM240200 07004KT P6SM SKC=

USA.gov is the U.S. government's official web portal to all federal, state and local government web resources and services.